Time;durP1;ratioP1;P1;durP2;ratioP2;P2;SDS_P1;SDS_P2;PMS_P1;PMS_P2;Temp;Humidity;BMP_temperature;BMP_pressure;BME280_temperature;BME280_humidity;BME280_pressure;Samples;Min_cycle;Max_cycle;Signal;HPM_P1;HPM_P2
2022/10/15 00:01:05;;;;;;;21.77;11.35;;;358.40;2329.60;;;;;;5001946;28;20566;-74
2022/10/15 00:03:33;;;;;;;21.38;10.38;;;358.40;2329.60;;;;;;5019003;28;20527;-74
2022/10/15 00:06:06;;;;;;;16.63;10.90;;;358.40;2329.60;;;;;;5014022;28;20033;-74
2022/10/15 00:08:33;;;;;;;21.58;11.07;;;358.40;2329.60;;;;;;5019940;28;20080;-73
2022/10/15 00:11:04;;;;;;;21.70;10.10;;;358.40;2329.60;;;;;;5010465;28;20418;-75
2022/10/15 00:13:30;;;;;;;24.85;11.38;;;358.50;2329.60;;;;;;5019868;28;20010;-77
2022/10/15 00:15:55;;;;;;;18.02;10.50;;;358.50;2329.60;;;;;;5013636;28;20091;-74
2022/10/15 00:18:21;;;;;;;24.63;11.27;;;358.40;2329.60;;;;;;5029407;28;20025;-75
2022/10/15 00:20:47;;;;;;;22.98;10.52;;;358.40;2329.60;;;;;;5019857;28;20464;-77
2022/10/15 00:23:13;;;;;;;19.77;11.18;;;333.70;2329.60;;;;;;5021748;28;20041;-73
2022/10/15 00:25:41;;;;;;;22.40;10.57;;;333.60;2329.60;;;;;;5021572;28;20079;-74
2022/10/15 00:28:06;;;;;;;27.63;11.50;;;333.70;2329.60;;;;;;5001360;28;20026;-73
2022/10/15 00:30:32;;;;;;;16.92;9.98;;;333.70;2329.60;;;;;;5018644;28;20141;-73
2022/10/15 00:32:58;;;;;;;18.30;11.05;;;333.70;2329.60;;;;;;5016122;28;20161;-75
2022/10/15 00:35:24;;;;;;;15.18;10.25;;;333.60;2329.60;;;;;;5015157;28;20034;-74
2022/10/15 00:37:49;;;;;;;21.63;11.05;;;333.50;2329.60;;;;;;5022233;28;20022;-76
2022/10/15 00:40:15;;;;;;;17.05;10.30;;;333.50;2329.60;;;;;;5014268;28;20420;-74
2022/10/15 00:42:41;;;;;;;19.70;11.15;;;333.40;2329.60;;;;;;5020138;28;20053;-74
2022/10/15 00:45:14;;;;;;;15.40;10.82;;;333.30;2329.60;;;;;;5007582;28;20037;-73
2022/10/15 00:47:58;;;;;;;16.65;10.60;;;333.30;2329.60;;;;;;5012003;28;20068;-78
2022/10/15 00:50:26;;;;;;;19.33;10.35;;;333.20;2329.60;;;;;;5020549;28;20605;-74
2022/10/15 00:53:06;;;;;;;16.77;9.77;;;333.20;2329.60;;;;;;5019161;28;20026;-74
2022/10/15 00:55:42;;;;;;;20.90;11.23;;;333.20;2329.60;;;;;;5015708;28;20499;-74
2022/10/15 00:58:14;;;;;;;19.42;11.88;;;333.20;2329.60;;;;;;5017019;28;20025;-74
2022/10/15 01:00:41;;;;;;;14.85;10.95;;;333.20;2329.60;;;;;;5018118;28;20471;-74
2022/10/15 01:03:07;;;;;;;21.30;12.50;;;333.20;2329.60;;;;;;5017951;28;20054;-74
2022/10/15 01:05:35;;;;;;;21.30;12.40;;;333.30;2329.60;;;;;;5018472;28;20034;-73
2022/10/15 01:08:00;;;;;;;21.27;12.43;;;333.30;2329.60;;;;;;5020394;28;20022;-74
2022/10/15 01:10:59;;;;;;;19.80;11.65;;;333.40;2329.60;;;;;;5023097;28;20504;-73
2022/10/15 01:13:36;;;;;;;19.02;11.88;;;333.40;2329.60;;;;;;4971491;28;20069;-74
2022/10/15 01:16:27;;;;;;;23.88;13.15;;;333.50;2329.60;;;;;;4969499;28;20023;-77
2022/10/15 01:19:22;;;;;;;18.63;11.88;;;333.50;2329.60;;;;;;4941110;28;20023;-74
2022/10/15 01:22:00;;;;;;;29.15;12.52;;;333.50;2329.60;;;;;;4895046;29;20123;-74
2022/10/15 01:24:56;;;;;;;23.80;12.82;;;333.50;2329.60;;;;;;4893488;29;20033;-77
2022/10/15 01:27:35;;;;;;;19.63;11.63;;;333.50;2329.60;;;;;;4894787;29;20383;-74
2022/10/15 01:30:22;;;;;;;16.92;11.45;;;333.50;2329.60;;;;;;4894885;29;20033;-73
2022/10/15 01:33:10;;;;;;;34.50;14.32;;;333.50;2329.60;;;;;;4879050;29;20040;-74
2022/10/15 01:35:49;;;;;;;20.17;13.13;;;333.60;2329.60;;;;;;4894712;29;20120;-75
2022/10/15 01:38:44;;;;;;;21.58;13.02;;;333.50;2329.60;;;;;;4894838;29;20045;-77
2022/10/15 01:41:28;;;;;;;19.48;12.55;;;333.50;2329.60;;;;;;4894859;29;20601;-74
2022/10/15 01:44:06;;;;;;;21.42;12.73;;;333.40;2329.60;;;;;;4879181;29;20520;-74
2022/10/15 01:46:54;;;;;;;20.95;13.10;;;333.40;2329.60;;;;;;4879341;29;20495;-74
2022/10/15 01:49:25;;;;;;;16.83;12.20;;;333.40;2329.60;;;;;;4905067;29;20024;-78
2022/10/15 01:51:53;;;;;;;22.02;13.88;;;333.40;2329.60;;;;;;4918670;29;20094;-74
2022/10/15 01:54:22;;;;;;;25.42;15.10;;;333.40;2329.60;;;;;;4940427;29;20027;-75
2022/10/15 01:56:50;;;;;;;28.33;14.43;;;333.40;2329.60;;;;;;4942059;29;20031;-75
2022/10/15 01:59:19;;;;;;;27.17;14.82;;;333.40;2329.60;;;;;;4995465;28;20036;-75
2022/10/15 02:01:46;;;;;;;26.17;14.20;;;333.40;2329.60;;;;;;4996897;28;20026;-74
2022/10/15 02:04:30;;;;;;;22.35;13.30;;;333.40;2329.60;;;;;;4995584;28;20414;-75
2022/10/15 02:07:14;;;;;;;18.38;13.15;;;333.40;2329.60;;;;;;5017452;28;20065;-75
2022/10/15 02:09:56;;;;;;;23.23;14.35;;;333.40;2329.60;;;;;;5019768;28;20053;-75
2022/10/15 02:12:37;;;;;;;19.05;12.95;;;333.40;2329.60;;;;;;5002170;28;20030;-74
2022/10/15 02:15:06;;;;;;;20.88;14.48;;;333.40;2329.60;;;;;;5014691;28;20025;-75
2022/10/15 02:17:53;;;;;;;21.05;15.43;;;333.40;2329.60;;;;;;5011691;28;20088;-74
2022/10/15 02:20:26;;;;;;;19.67;12.85;;;333.40;2329.60;;;;;;4996388;28;20025;-75
2022/10/15 02:23:04;;;;;;;22.70;13.57;;;333.40;2329.60;;;;;;5013775;28;20032;-78
2022/10/15 02:25:32;;;;;;;23.88;13.23;;;333.40;2329.60;;;;;;4997246;28;20111;-74
2022/10/15 02:27:59;;;;;;;22.73;13.43;;;333.40;2329.60;;;;;;5035202;28;20026;-77
2022/10/15 02:30:27;;;;;;;30.20;14.35;;;333.40;2329.60;;;;;;5011127;28;20052;-75
2022/10/15 02:32:56;;;;;;;19.60;13.98;;;333.40;2329.60;;;;;;5000038;28;20042;-76
2022/10/15 02:35:23;;;;;;;19.33;13.88;;;333.40;2329.60;;;;;;5001733;28;20038;-75
2022/10/15 02:37:52;;;;;;;21.90;13.05;;;333.40;2329.60;;;;;;4999269;28;20480;-75
2022/10/15 02:40:23;;;;;;;29.98;13.23;;;333.40;2329.60;;;;;;5013424;28;20053;-75
2022/10/15 02:42:50;;;;;;;21.05;12.85;;;333.30;2329.60;;;;;;5018208;28;20464;-75
2022/10/15 02:45:16;;;;;;;23.15;12.80;;;333.30;2329.60;;;;;;5018062;28;20104;-75
2022/10/15 02:47:42;;;;;;;23.08;13.75;;;333.30;2329.60;;;;;;5001839;28;20156;-75
2022/10/15 02:50:08;;;;;;;25.88;14.35;;;333.30;2329.60;;;;;;5019500;28;20475;-75
2022/10/15 02:52:33;;;;;;;21.42;13.10;;;333.20;2329.60;;;;;;5006890;28;20029;-75
2022/10/15 02:54:59;;;;;;;24.48;14.18;;;333.20;2329.60;;;;;;5013570;28;20034;-75
2022/10/15 02:57:25;;;;;;;19.85;13.98;;;333.20;2329.60;;;;;;5004727;28;20026;-76
2022/10/15 02:59:51;;;;;;;19.98;12.80;;;333.20;2329.60;;;;;;4999046;28;20026;-74
2022/10/15 03:02:16;;;;;;;20.80;12.95;;;333.20;2329.60;;;;;;4999056;28;20454;-75
2022/10/15 03:04:42;;;;;;;21.33;12.93;;;333.20;2329.60;;;;;;5019060;28;20060;-75
2022/10/15 03:07:08;;;;;;;25.65;13.70;;;333.20;2329.60;;;;;;5014368;28;20075;-74
2022/10/15 03:09:34;;;;;;;17.92;13.25;;;333.20;2329.60;;;;;;5014160;28;20057;-74
2022/10/15 03:11:59;;;;;;;18.55;12.65;;;333.20;2329.60;;;;;;5026025;28;20030;-75
2022/10/15 03:14:25;;;;;;;22.08;14.00;;;333.20;2329.60;;;;;;5022965;28;20022;-74
2022/10/15 03:16:51;;;;;;;21.00;13.10;;;333.20;2329.60;;;;;;5017838;28;20468;-75
2022/10/15 03:19:16;;;;;;;23.27;16.38;;;333.20;2329.60;;;;;;5020258;28;20025;-75
2022/10/15 03:21:42;;;;;;;23.40;13.77;;;333.20;2329.60;;;;;;5034112;28;20032;-75
2022/10/15 03:24:08;;;;;;;19.83;12.93;;;333.20;2329.60;;;;;;5010987;28;20038;-75
2022/10/15 03:26:34;;;;;;;20.35;13.95;;;333.30;2329.60;;;;;;5024414;28;20034;-76
2022/10/15 03:28:59;;;;;;;24.73;13.68;;;333.20;2329.60;;;;;;5003868;28;20030;-74
2022/10/15 03:31:25;;;;;;;22.42;13.35;;;333.20;2329.60;;;;;;5007568;28;20033;-78
2022/10/15 03:33:51;;;;;;;20.35;12.98;;;333.20;2329.60;;;;;;5018419;28;20472;-77
2022/10/15 03:36:16;;;;;;;24.55;13.90;;;333.20;2329.60;;;;;;5020413;28;20026;-74
2022/10/15 03:38:42;;;;;;;19.30;13.93;;;333.20;2329.60;;;;;;5015405;28;20029;-75
2022/10/15 03:41:08;;;;;;;33.25;14.48;;;333.20;2329.60;;;;;;4999441;28;20018;-74
2022/10/15 03:43:34;;;;;;;20.13;12.85;;;333.20;2329.60;;;;;;5009866;28;20353;-75
2022/10/15 03:46:04;;;;;;;26.80;14.75;;;333.10;2329.60;;;;;;5017676;28;20045;-75
2022/10/15 03:48:29;;;;;;;20.35;13.77;;;333.10;2329.60;;;;;;5025157;28;20018;-74
2022/10/15 03:50:56;;;;;;;23.20;13.93;;;333.10;2329.60;;;;;;5017056;28;20033;-75
2022/10/15 03:53:22;;;;;;;20.38;12.40;;;333.10;2329.60;;;;;;5019255;28;20017;-75
2022/10/15 03:55:48;;;;;;;22.33;13.65;;;333.10;2329.60;;;;;;5000061;28;20071;-77
2022/10/15 03:58:14;;;;;;;21.15;13.60;;;333.10;2329.60;;;;;;5026998;28;20089;-74
2022/10/15 04:00:43;;;;;;;21.85;13.23;;;333.00;2329.60;;;;;;5004097;28;20045;-75
2022/10/15 04:03:09;;;;;;;25.75;13.90;;;333.00;2329.60;;;;;;5004411;28;20069;-74
2022/10/15 04:05:35;;;;;;;21.00;13.32;;;332.90;2329.60;;;;;;5004526;28;20037;-75
2022/10/15 04:08:02;;;;;;;23.90;13.38;;;332.90;2329.60;;;;;;5021601;28;20026;-75
2022/10/15 04:10:28;;;;;;;18.52;13.65;;;332.90;2329.60;;;;;;5022325;28;20021;-76
2022/10/15 04:12:54;;;;;;;22.25;13.27;;;333.10;2329.60;;;;;;5011222;28;20029;-74
2022/10/15 04:15:20;;;;;;;24.77;15.32;;;332.90;2329.60;;;;;;5004977;28;20048;-75
2022/10/15 04:17:46;;;;;;;21.48;13.73;;;332.90;2329.60;;;;;;5020121;28;20022;-75
2022/10/15 04:20:12;;;;;;;23.15;14.48;;;332.90;2329.60;;;;;;5017790;28;20077;-75
2022/10/15 04:22:37;;;;;;;24.67;16.02;;;332.90;2329.60;;;;;;5019197;28;20018;-75
2022/10/15 04:25:04;;;;;;;29.08;15.07;;;332.90;2329.60;;;;;;5006607;28;20034;-74
2022/10/15 04:27:29;;;;;;;22.30;14.40;;;332.90;2329.60;;;;;;5001556;28;20462;-75
2022/10/15 04:29:55;;;;;;;31.77;14.98;;;332.90;2329.60;;;;;;5018859;28;20037;-74
2022/10/15 04:32:21;;;;;;;23.75;14.48;;;332.90;2329.60;;;;;;5019375;28;20034;-75
2022/10/15 04:34:47;;;;;;;20.85;14.27;;;332.90;2329.60;;;;;;5018792;28;20088;-74
2022/10/15 04:37:13;;;;;;;24.60;15.07;;;332.90;2329.60;;;;;;5001043;28;20100;-75
2022/10/15 04:39:39;;;;;;;23.80;13.93;;;332.90;2329.60;;;;;;5021861;28;20021;-75
2022/10/15 04:42:04;;;;;;;28.13;14.48;;;332.90;2329.60;;;;;;5018742;28;20032;-75
2022/10/15 04:44:30;;;;;;;28.95;14.25;;;332.90;2329.60;;;;;;5018849;28;20017;-74
2022/10/15 04:46:56;;;;;;;21.27;14.38;;;332.90;2329.60;;;;;;5004326;28;20042;-75
2022/10/15 04:49:22;;;;;;;22.70;14.35;;;332.90;2329.60;;;;;;5027719;28;20092;-75
2022/10/15 04:51:48;;;;;;;24.92;14.50;;;332.90;2329.60;;;;;;4998735;28;20022;-75
2022/10/15 04:54:14;;;;;;;20.23;13.30;;;308.10;2304.00;;;;;;5000845;28;20022;-75
2022/10/15 04:56:39;;;;;;;18.98;13.60;;;332.90;2329.60;;;;;;4998077;28;20026;-75
2022/10/15 04:59:07;;;;;;;23.27;14.68;;;332.90;2329.60;;;;;;5023709;28;20033;-74
2022/10/15 05:01:33;;;;;;;23.30;15.85;;;332.90;2329.60;;;;;;5003177;28;20041;-74
2022/10/15 05:03:59;;;;;;;23.42;15.18;;;332.90;2329.60;;;;;;5007240;28;20050;-75
2022/10/15 05:06:24;;;;;;;22.65;15.20;;;332.90;2329.60;;;;;;5019584;28;20152;-76
2022/10/15 05:08:51;;;;;;;22.55;16.15;;;332.80;2329.60;;;;;;5003316;28;20112;-74
2022/10/15 05:11:25;;;;;;;23.65;14.80;;;308.10;2304.00;;;;;;5015320;28;20052;-75
2022/10/15 05:13:53;;;;;;;23.60;15.70;;;308.10;2304.00;;;;;;5014862;28;20079;-74
2022/10/15 05:16:21;;;;;;;25.58;14.23;;;308.10;2304.00;;;;;;5025974;28;20022;-73
2022/10/15 05:18:50;;;;;;;24.17;14.50;;;332.80;2329.60;;;;;;5015188;28;20014;-74
2022/10/15 05:21:17;;;;;;;30.38;15.05;;;332.80;2329.60;;;;;;5015158;28;20076;-75
2022/10/15 05:23:44;;;;;;;25.40;15.27;;;332.80;2329.60;;;;;;5015537;28;20030;-73
2022/10/15 05:26:16;;;;;;;24.60;15.02;;;332.90;2329.60;;;;;;4997553;28;20506;-75
2022/10/15 05:28:42;;;;;;;28.05;15.52;;;332.90;2329.60;;;;;;4998648;28;20479;-74
2022/10/15 05:31:13;;;;;;;29.55;15.75;;;332.90;2329.60;;;;;;4997599;28;20061;-74
2022/10/15 05:33:39;;;;;;;27.70;15.90;;;333.00;2329.60;;;;;;5012196;28;20041;-75
2022/10/15 05:36:17;;;;;;;26.70;14.80;;;332.90;2329.60;;;;;;5029428;28;20028;-74
2022/10/15 05:38:45;;;;;;;27.58;15.13;;;333.00;2329.60;;;;;;5052605;28;20410;-75
2022/10/15 05:41:11;;;;;;;24.50;15.18;;;333.10;2329.60;;;;;;5043662;28;20028;-78
2022/10/15 05:43:37;;;;;;;29.10;16.83;;;333.10;2329.60;;;;;;5047725;28;20029;-74
2022/10/15 05:46:02;;;;;;;27.90;16.02;;;333.10;2329.60;;;;;;5052722;28;20188;-73
2022/10/15 05:48:28;;;;;;;26.65;16.67;;;333.20;2329.60;;;;;;5039049;28;20116;-73
2022/10/15 05:51:03;;;;;;;23.95;16.10;;;333.20;2329.60;;;;;;5046619;28;20036;-74
2022/10/15 05:53:29;;;;;;;28.05;15.65;;;333.20;2329.60;;;;;;5044992;28;20021;-80
2022/10/15 05:55:57;;;;;;;22.30;16.10;;;333.30;2329.60;;;;;;5047790;28;20395;-73
2022/10/15 05:58:24;;;;;;;28.52;16.15;;;333.20;2329.60;;;;;;5043465;28;20020;-75
2022/10/15 06:00:57;;;;;;;24.17;17.27;;;333.40;2329.60;;;;;;5035167;28;20157;-73
2022/10/15 06:03:23;;;;;;;27.67;16.52;;;333.40;2329.60;;;;;;5042294;28;20048;-72
2022/10/15 06:05:49;;;;;;;25.42;16.23;;;333.40;2329.60;;;;;;5051811;28;20041;-73
2022/10/15 06:08:15;;;;;;;31.75;16.52;;;333.50;2329.60;;;;;;5050077;28;20104;-73
2022/10/15 06:10:41;;;;;;;26.15;17.15;;;333.60;2329.60;;;;;;5026386;28;20102;-73
2022/10/15 06:13:08;;;;;;;28.38;17.35;;;333.60;2329.60;;;;;;5039320;28;20391;-73
2022/10/15 06:15:33;;;;;;;25.73;16.63;;;333.70;2329.60;;;;;;5045972;28;20021;-73
2022/10/15 06:17:59;;;;;;;37.28;18.42;;;333.70;2329.60;;;;;;5043320;28;20031;-71
2022/10/15 06:20:26;;;;;;;26.48;15.52;;;358.40;2329.60;;;;;;5052008;28;20017;-73
2022/10/15 06:22:57;;;;;;;25.67;15.77;;;358.50;2329.60;;;;;;5042586;28;20040;-73
2022/10/15 06:25:23;;;;;;;24.23;16.20;;;358.50;2329.60;;;;;;5014492;28;20029;-75
2022/10/15 06:27:49;;;;;;;22.17;15.18;;;358.60;2329.60;;;;;;5039981;28;20100;-80
2022/10/15 06:30:14;;;;;;;27.25;16.40;;;358.70;2329.60;;;;;;5051965;28;20039;-72
2022/10/15 06:32:49;;;;;;;28.88;15.80;;;358.80;2329.60;;;;;;5051747;28;20017;-73
2022/10/15 06:35:16;;;;;;;29.83;15.90;;;358.90;2329.60;;;;;;5052047;28;20041;-73
2022/10/15 06:37:42;;;;;;;29.10;15.52;;;359.00;2329.60;;;;;;5051710;28;20017;-74
2022/10/15 06:40:08;;;;;;;23.58;14.55;;;359.00;2329.60;;;;;;5051281;28;20103;-73
2022/10/15 06:42:34;;;;;;;24.30;14.68;;;359.20;2329.60;;;;;;5032357;28;20018;-75
2022/10/15 06:45:00;;;;;;;26.98;15.27;;;359.20;2329.60;;;;;;5046995;28;20029;-78
2022/10/15 06:47:25;;;;;;;23.75;14.93;;;359.30;2329.60;;;;;;5055858;28;20025;-80
2022/10/15 06:49:51;;;;;;;29.08;14.85;;;384.00;2329.60;;;;;;5045274;28;20514;-83
2022/10/15 06:52:17;;;;;;;25.48;13.57;;;384.10;2329.60;;;;;;5049898;28;20082;-74
2022/10/15 06:54:43;;;;;;;19.92;13.23;;;384.20;2329.60;;;;;;5026414;28;20036;-73
2022/10/15 06:57:08;;;;;;;24.20;12.40;;;384.30;2329.60;;;;;;5040980;28;20025;-77
2022/10/15 06:59:34;;;;;;;21.95;12.98;;;384.40;2329.60;;;;;;5012672;28;20436;-77
2022/10/15 07:02:00;;;;;;;20.25;12.55;;;384.40;2329.60;;;;;;5030414;28;20025;-77
2022/10/15 07:04:26;;;;;;;20.55;13.00;;;384.60;2329.60;;;;;;5035540;28;20037;-78
2022/10/15 07:06:51;;;;;;;15.35;11.20;;;384.70;2329.60;;;;;;5046762;28;20068;-81
2022/10/15 07:09:18;;;;;;;23.45;10.85;;;384.90;2329.60;;;;;;5042165;28;20498;-76
2022/10/15 07:11:43;;;;;;;20.08;11.95;;;384.90;2329.60;;;;;;5028844;28;20079;-76
2022/10/15 07:14:09;;;;;;;19.48;12.20;;;384.90;2329.60;;;;;;5031969;28;20021;-75
2022/10/15 07:16:36;;;;;;;27.13;12.75;;;409.60;2355.20;;;;;;5024911;28;20059;-77
2022/10/15 07:19:02;;;;;;;22.95;12.73;;;409.70;2355.20;;;;;;5055649;28;20128;-78
2022/10/15 07:21:27;;;;;;;16.52;11.65;;;409.80;2355.20;;;;;;5049753;28;20022;-75
2022/10/15 07:23:53;;;;;;;20.58;11.35;;;409.90;2355.20;;;;;;5029038;28;20167;-74
2022/10/15 07:26:19;;;;;;;21.15;11.73;;;409.90;2355.20;;;;;;5051707;28;20445;-76
2022/10/15 07:28:45;;;;;;;26.70;12.38;;;409.90;2355.20;;;;;;5045060;28;20475;-78
2022/10/15 07:31:10;;;;;;;17.90;10.98;;;410.00;2355.20;;;;;;5036922;28;20032;-75
2022/10/15 07:33:36;;;;;;;19.05;11.13;;;410.00;2355.20;;;;;;5055100;28;20028;-75
2022/10/15 07:36:05;;;;;;;18.38;11.23;;;410.20;2355.20;;;;;;5055311;28;20032;-75
2022/10/15 07:38:31;;;;;;;18.65;11.25;;;410.20;2355.20;;;;;;5031305;28;20021;-75
2022/10/15 07:41:02;;;;;;;22.20;11.90;;;410.30;2355.20;;;;;;5039556;28;20021;-75
2022/10/15 07:43:27;;;;;;;20.10;8.93;;;410.30;2355.20;;;;;;5048772;28;20021;-75
2022/10/15 07:45:53;;;;;;;17.45;10.48;;;410.30;2355.20;;;;;;5055032;28;20048;-75
2022/10/15 07:48:19;;;;;;;22.08;10.65;;;410.40;2355.20;;;;;;5036440;28;20040;-84
2022/10/15 07:50:45;;;;;;;18.52;9.25;;;410.50;2355.20;;;;;;5051155;28;20024;-80
2022/10/15 07:53:11;;;;;;;36.30;10.65;;;410.50;2355.20;;;;;;5034818;28;20382;-76
2022/10/15 07:55:37;;;;;;;21.67;9.98;;;410.40;2355.20;;;;;;5034461;28;20022;-80
2022/10/15 07:58:04;;;;;;;20.45;9.85;;;410.40;2355.20;;;;;;5018173;28;20026;-75
2022/10/15 08:00:31;;;;;;;18.67;8.75;;;410.50;2355.20;;;;;;5014370;28;20020;-76
2022/10/15 08:02:57;;;;;;;16.83;9.55;;;410.50;2355.20;;;;;;5021366;28;20021;-76
2022/10/15 08:05:23;;;;;;;19.15;9.38;;;410.50;2355.20;;;;;;5019392;28;20049;-79
2022/10/15 08:07:48;;;;;;;24.88;10.27;;;410.50;2355.20;;;;;;5002237;28;20080;-77
2022/10/15 08:10:14;;;;;;;16.17;9.48;;;410.50;2355.20;;;;;;5015258;28;20383;-77
2022/10/15 08:12:40;;;;;;;17.50;9.13;;;435.20;2355.20;;;;;;5053477;28;20052;-78
2022/10/15 08:15:07;;;;;;;17.63;10.18;;;435.20;2355.20;;;;;;5023495;28;20107;-78
2022/10/15 08:17:32;;;;;;;17.77;9.05;;;435.20;2355.20;;;;;;5041021;28;20490;-77
2022/10/15 08:19:58;;;;;;;16.45;9.23;;;435.30;2355.20;;;;;;5030240;28;20032;-75
2022/10/15 08:22:24;;;;;;;18.45;10.05;;;435.30;2355.20;;;;;;5045449;28;20033;-77
2022/10/15 08:24:51;;;;;;;17.13;10.35;;;435.30;2355.20;;;;;;5039790;28;20474;-76
2022/10/15 08:27:17;;;;;;;21.90;11.27;;;435.50;2355.20;;;;;;5036358;28;20498;-76
2022/10/15 08:29:43;;;;;;;14.73;10.02;;;435.50;2355.20;;;;;;5054241;28;20386;-76
2022/10/15 08:32:08;;;;;;;16.02;8.65;;;435.40;2355.20;;;;;;5054246;28;20044;-77
2022/10/15 08:34:34;;;;;;;15.40;9.65;;;435.50;2355.20;;;;;;5036560;28;20072;-75
2022/10/15 08:37:02;;;;;;;23.02;10.50;;;435.50;2355.20;;;;;;5053886;28;20479;-77
2022/10/15 08:39:27;;;;;;;22.48;9.68;;;435.70;2355.20;;;;;;5053876;28;20107;-80
2022/10/15 08:42:05;;;;;;;30.52;14.30;;;435.80;2355.20;;;;;;5038730;28;20053;-78
2022/10/15 08:44:43;;;;;;;26.05;13.80;;;435.80;2355.20;;;;;;5034213;28;20036;-78
2022/10/15 08:47:18;;;;;;;20.85;14.23;;;435.80;2355.20;;;;;;5031886;28;20056;-80
2022/10/15 08:49:51;;;;;;;24.25;12.90;;;435.80;2355.20;;;;;;5036267;28;20020;-79
2022/10/15 08:52:48;;;;;;;19.88;11.13;;;435.80;2355.20;;;;;;5033592;28;20021;-76
2022/10/15 08:55:19;;;;;;;28.80;13.05;;;435.90;2355.20;;;;;;5047101;28;20071;-79
2022/10/15 08:58:15;;;;;;;25.17;11.95;;;435.90;2355.20;;;;;;5048087;28;20497;-78
2022/10/15 09:01:01;;;;;;;17.23;9.55;;;436.00;2355.20;;;;;;5029604;28;20025;-82
2022/10/15 09:03:48;;;;;;;14.65;8.73;;;460.80;2380.80;;;;;;5015657;28;20057;-81
2022/10/15 09:06:20;;;;;;;14.40;9.10;;;460.80;2380.80;;;;;;5033703;28;20033;-81
2022/10/15 09:09:16;;;;;;;14.35;9.05;;;461.00;2380.80;;;;;;5027550;28;20486;-78
2022/10/15 09:12:05;;;;;;;15.98;9.13;;;461.20;2380.80;;;;;;5004407;28;20042;-76
2022/10/15 09:14:36;;;;;;;15.82;9.50;;;461.30;2380.80;;;;;;5033058;28;20025;-79
2022/10/15 09:17:14;;;;;;;26.30;9.15;;;461.30;2380.80;;;;;;5053200;28;20491;-77
2022/10/15 09:19:43;;;;;;;14.20;7.38;;;461.40;2380.80;;;;;;5030926;28;20029;-78
2022/10/15 09:22:13;;;;;;;11.50;5.78;;;461.40;2380.80;;;;;;5015835;28;20398;-78
2022/10/15 09:24:39;;;;;;;22.50;6.85;;;461.50;2380.80;;;;;;5029412;28;20017;-79
2022/10/15 09:27:13;;;;;;;17.10;8.02;;;461.50;2380.80;;;;;;5024893;28;20387;-78
2022/10/15 09:29:44;;;;;;;16.23;7.85;;;461.60;2380.80;;;;;;5035363;28;20017;-80
2022/10/15 09:32:26;;;;;;;14.90;8.52;;;461.70;2380.80;;;;;;5017557;28;20057;-80
2022/10/15 09:35:13;;;;;;;16.70;9.18;;;486.50;2380.80;;;;;;5012746;28;20021;-79
2022/10/15 09:37:57;;;;;;;12.23;6.78;;;486.60;2380.80;;;;;;5017263;28;20034;-83
2022/10/15 09:40:45;;;;;;;20.80;6.70;;;486.50;2380.80;;;;;;5017189;28;20116;-79
2022/10/15 09:43:13;;;;;;;24.05;8.35;;;486.60;2380.80;;;;;;5027764;28;20025;-82
2022/10/15 09:45:38;;;;;;;16.80;7.47;;;486.80;2380.80;;;;;;5040579;28;20040;-83
2022/10/15 09:48:16;;;;;;;10.32;6.53;;;487.00;2380.80;;;;;;5034632;28;20017;-80
2022/10/15 09:51:05;;;;;;;11.50;6.80;;;486.90;2380.80;;;;;;5027602;28;20052;-76
2022/10/15 09:53:57;;;;;;;12.65;5.78;;;486.90;2380.80;;;;;;4936305;29;20043;-78
2022/10/15 09:56:30;;;;;;;12.07;6.25;;;487.20;2380.80;;;;;;4936628;29;20039;-78
2022/10/15 09:58:58;;;;;;;15.27;6.50;;;512.00;2380.80;;;;;;4922610;29;20035;-76
2022/10/15 10:01:30;;;;;;;20.70;7.25;;;512.10;2380.80;;;;;;4949173;29;20051;-77
2022/10/15 10:04:12;;;;;;;10.90;5.90;;;512.20;2355.20;;;;;;4935362;29;20082;-84
2022/10/15 10:06:50;;;;;;;9.75;5.75;;;512.20;2227.20;;;;;;4951867;29;20066;-76
2022/10/15 10:09:38;;;;;;;19.63;6.30;;;512.30;2176.00;;;;;;4952299;29;20031;-76
2022/10/15 10:12:07;;;;;;;14.75;6.40;;;512.40;2201.60;;;;;;4939286;29;20058;-76
2022/10/15 10:14:38;;;;;;;14.15;6.15;;;512.60;2201.60;;;;;;4943096;29;20437;-78
2022/10/15 10:17:07;;;;;;;13.88;5.90;;;512.70;2176.00;;;;;;4950366;29;20054;-77
2022/10/15 10:19:33;;;;;;;15.45;6.32;;;512.70;2124.80;;;;;;4929799;29;20066;-81
2022/10/15 10:22:12;;;;;;;12.25;6.30;;;512.70;2150.40;;;;;;4935887;29;20061;-82
2022/10/15 10:24:38;;;;;;;17.40;6.35;;;537.60;2227.20;;;;;;4946508;29;20036;-78
2022/10/15 10:27:23;;;;;;;13.05;6.15;;;537.90;2201.60;;;;;;4950150;29;20031;-79
2022/10/15 10:30:00;;;;;;;11.48;6.63;;;537.90;2048.00;;;;;;4948684;28;20038;-78
2022/10/15 10:32:30;;;;;;;13.77;7.45;;;537.80;2073.60;;;;;;5000648;28;20480;-81
2022/10/15 10:34:57;;;;;;;13.93;6.55;;;538.00;2073.60;;;;;;5006062;28;20041;-79
2022/10/15 10:37:23;;;;;;;12.30;5.63;;;538.00;2022.40;;;;;;5025617;28;20475;-78
2022/10/15 10:39:58;;;;;;;23.08;7.55;;;538.00;2048.00;;;;;;5026387;28;20112;-79
2022/10/15 10:42:31;;;;;;;12.85;6.38;;;538.30;2022.40;;;;;;5033614;28;20025;-80
2022/10/15 10:45:15;;;;;;;12.27;4.95;;;537.90;1971.20;;;;;;5034058;28;20028;-80
2022/10/15 10:47:40;;;;;;;12.57;6.03;;;538.10;1945.60;;;;;;5033513;28;20117;-81
2022/10/15 10:50:29;;;;;;;12.38;5.95;;;538.20;1945.60;;;;;;5052067;28;20095;-78
2022/10/15 10:52:58;;;;;;;12.38;5.20;;;538.30;1945.60;;;;;;5049474;28;20018;-77
2022/10/15 10:55:33;;;;;;;11.52;5.57;;;538.50;1894.40;;;;;;4998812;28;20029;-78
2022/10/15 10:58:00;;;;;;;9.23;5.40;;;563.20;1945.60;;;;;;5003592;28;20492;-77
2022/10/15 11:00:35;;;;;;;12.10;5.15;;;563.30;1971.20;;;;;;5017911;28;20506;-76
2022/10/15 11:03:01;;;;;;;12.63;5.38;;;563.20;1920.00;;;;;;5004442;28;20598;-76
2022/10/15 11:05:33;;;;;;;18.00;6.32;;;563.40;1920.00;;;;;;4998970;28;20121;-82
2022/10/15 11:08:11;;;;;;;10.00;4.78;;;563.50;1894.40;;;;;;5014653;28;20060;-79
2022/10/15 11:10:56;;;;;;;11.07;5.18;;;563.40;1843.20;;;;;;5011285;28;20045;-80
2022/10/15 11:13:44;;;;;;;13.55;5.05;;;563.40;1843.20;;;;;;5018539;28;20064;-77
2022/10/15 11:16:19;;;;;;;9.05;6.07;;;563.30;1843.20;;;;;;5022502;28;20033;-77
2022/10/15 11:19:05;;;;;;;12.07;6.15;;;538.50;1817.60;;;;;;5015511;28;20018;-78
2022/10/15 11:21:54;;;;;;;15.02;6.50;;;563.20;1868.80;;;;;;5019519;28;20033;-79
2022/10/15 11:24:34;;;;;;;23.50;7.47;;;563.40;1868.80;;;;;;5006226;28;20025;-77
2022/10/15 11:27:36;;;;;;;13.65;6.40;;;538.50;1868.80;;;;;;5024554;28;20030;-79
2022/10/15 11:30:33;;;;;;;11.23;5.35;;;563.20;1843.20;;;;;;5015364;28;20123;-79
2022/10/15 11:33:20;;;;;;;12.30;4.95;;;563.40;1817.60;;;;;;5054524;28;20045;-79
2022/10/15 11:36:15;;;;;;;19.27;5.95;;;563.50;1792.00;;;;;;5037619;28;20017;-80
2022/10/15 11:38:40;;;;;;;13.05;5.50;;;563.50;1766.40;;;;;;5032836;28;20022;-79
2022/10/15 11:41:15;;;;;;;15.88;5.68;;;563.60;1766.40;;;;;;5027348;28;20025;-80
2022/10/15 11:43:44;;;;;;;16.88;6.15;;;564.00;1766.40;;;;;;5025604;28;20025;-79
2022/10/15 11:46:35;;;;;;;12.43;6.10;;;564.00;1792.00;;;;;;5005130;28;20037;-79
2022/10/15 11:49:34;;;;;;;11.82;5.60;;;564.00;1766.40;;;;;;4997590;28;20030;-79
2022/10/15 11:52:19;;;;;;;9.10;4.78;;;563.70;1766.40;;;;;;5025501;28;20483;-80
2022/10/15 11:55:00;;;;;;;15.88;6.85;;;564.10;1740.80;;;;;;5028194;28;20026;-79
2022/10/15 11:57:27;;;;;;;15.35;5.93;;;564.00;1740.80;;;;;;5008499;28;20058;-77
2022/10/15 11:59:59;;;;;;;15.02;5.30;;;588.80;1715.20;;;;;;5021874;28;20036;-78
2022/10/15 12:02:38;;;;;;;12.32;5.63;;;588.80;1715.20;;;;;;5023057;28;20049;-77
2022/10/15 12:05:13;;;;;;;15.43;5.82;;;564.00;1689.60;;;;;;5025404;28;20045;-80
2022/10/15 12:07:45;;;;;;;13.70;5.07;;;564.10;1664.00;;;;;;5005997;28;20084;-79
2022/10/15 12:10:26;;;;;;;17.58;6.22;;;563.80;1689.60;;;;;;5003358;28;20267;-80
2022/10/15 12:13:12;;;;;;;11.88;4.93;;;564.00;1689.60;;;;;;5009166;28;20041;-78
2022/10/15 12:16:03;;;;;;;12.52;4.97;;;563.80;1715.20;;;;;;5001914;28;20017;-79
2022/10/15 12:18:42;;;;;;;18.75;6.10;;;563.70;1715.20;;;;;;5016844;28;20025;-80
2022/10/15 12:21:37;;;;;;;14.10;6.28;;;563.60;1715.20;;;;;;5042666;28;20038;-79